Time;durP1;ratioP1;P1;durP2;ratioP2;P2;SDS_P1;SDS_P2;PMS_P1;PMS_P2;Temp;Humidity;BMP_temperature;BMP_pressure;BME280_temperature;BME280_humidity;BME280_pressure;Samples;Min_cycle;Max_cycle;Signal;HPM_P1;HPM_P2
2023/07/03 00:01:05;;;;;;;13.57;10.38;;;23.90;99.90;;;;;;5075285;28;20025;-73
2023/07/03 00:03:31;;;;;;;12.13;10.80;;;23.90;99.90;;;;;;5081130;28;20040;-73
2023/07/03 00:05:57;;;;;;;12.70;10.15;;;23.90;99.90;;;;;;5077132;28;20478;-73
2023/07/03 00:08:22;;;;;;;13.45;10.73;;;23.80;99.90;;;;;;5080084;28;20036;-73
2023/07/03 00:10:48;;;;;;;13.05;10.20;;;23.80;99.90;;;;;;5077209;28;20052;-73
2023/07/03 00:13:14;;;;;;;14.48;9.68;;;23.80;99.90;;;;;;5079073;28;20028;-72
2023/07/03 00:15:43;;;;;;;12.25;10.05;;;23.70;99.90;;;;;;5076434;28;20032;-73
2023/07/03 00:18:09;;;;;;;12.40;10.90;;;23.80;99.90;;;;;;5079734;28;20390;-73
2023/07/03 00:20:34;;;;;;;11.00;9.90;;;23.70;99.90;;;;;;5077851;28;20043;-73
2023/07/03 00:23:00;;;;;;;13.15;10.07;;;23.80;99.90;;;;;;5080821;28;20082;-73
2023/07/03 00:25:25;;;;;;;12.90;10.25;;;23.80;99.90;;;;;;5080375;28;20039;-73
2023/07/03 00:27:53;;;;;;;13.05;9.68;;;23.80;99.90;;;;;;5085725;28;20052;-73
2023/07/03 00:30:19;;;;;;;12.00;10.38;;;23.70;99.90;;;;;;5082645;28;20413;-73
2023/07/03 00:32:45;;;;;;;14.40;9.98;;;23.70;99.90;;;;;;5082698;28;20069;-73
2023/07/03 00:35:11;;;;;;;12.05;8.95;;;23.70;99.90;;;;;;5081620;28;20041;-73
2023/07/03 00:37:36;;;;;;;11.45;9.77;;;23.70;99.90;;;;;;5081655;28;20020;-73
2023/07/03 00:40:03;;;;;;;11.77;10.13;;;23.70;99.90;;;;;;5080464;28;20397;-73
2023/07/03 00:42:30;;;;;;;13.48;9.48;;;23.70;99.90;;;;;;5083517;28;20020;-73
2023/07/03 00:44:56;;;;;;;13.30;10.15;;;23.70;99.90;;;;;;5083628;28;20062;-73
2023/07/03 00:47:25;;;;;;;11.77;9.35;;;23.60;99.90;;;;;;5082463;28;20020;-73
2023/07/03 00:49:51;;;;;;;10.25;8.90;;;23.60;99.90;;;;;;5083759;28;20430;-73
2023/07/03 00:52:16;;;;;;;13.88;9.80;;;23.60;99.90;;;;;;5082695;28;20077;-73
2023/07/03 00:54:42;;;;;;;10.98;9.25;;;23.60;99.90;;;;;;5083059;28;20024;-73
2023/07/03 00:57:16;;;;;;;10.20;8.77;;;23.70;99.90;;;;;;5080757;28;20024;-73
2023/07/03 00:59:41;;;;;;;12.50;9.75;;;23.60;99.90;;;;;;5081668;28;20537;-73
2023/07/03 01:02:14;;;;;;;11.02;8.52;;;23.50;99.90;;;;;;5082278;28;20056;-73
2023/07/03 01:04:58;;;;;;;12.05;9.00;;;23.50;99.90;;;;;;5082613;28;20020;-73
2023/07/03 01:07:33;;;;;;;12.75;9.48;;;23.50;99.90;;;;;;5082842;28;20020;-73
2023/07/03 01:10:10;;;;;;;13.20;9.43;;;23.50;99.90;;;;;;5081693;28;20017;-73
2023/07/03 01:12:40;;;;;;;9.88;8.85;;;23.50;99.90;;;;;;5081202;28;20037;-73
2023/07/03 01:15:10;;;;;;;10.27;9.27;;;23.50;99.90;;;;;;5064662;28;20029;-73
2023/07/03 01:17:39;;;;;;;10.45;9.38;;;23.50;99.90;;;;;;5081712;28;20020;-72
2023/07/03 01:20:06;;;;;;;10.07;9.02;;;23.50;99.90;;;;;;5066792;28;20531;-72
2023/07/03 01:22:56;;;;;;;13.00;8.80;;;23.50;99.90;;;;;;5081147;28;20398;-72
2023/07/03 01:25:24;;;;;;;11.23;8.73;;;23.50;99.90;;;;;;5082053;28;20393;-73
2023/07/03 01:27:52;;;;;;;11.98;9.18;;;23.50;99.90;;;;;;5083516;28;20327;-73
2023/07/03 01:30:20;;;;;;;12.07;9.48;;;23.50;99.90;;;;;;5065518;28;20039;-73
2023/07/03 01:32:50;;;;;;;9.35;8.38;;;23.50;99.90;;;;;;5082093;28;20060;-73
2023/07/03 01:35:17;;;;;;;14.48;9.00;;;23.50;99.90;;;;;;5078220;28;20035;-73
2023/07/03 01:37:47;;;;;;;9.82;8.88;;;23.50;99.90;;;;;;5081484;28;20429;-72
2023/07/03 01:40:15;;;;;;;9.10;8.20;;;23.50;99.90;;;;;;5061898;28;20037;-73
2023/07/03 01:42:42;;;;;;;9.32;8.25;;;23.50;99.90;;;;;;5081916;28;20100;-73
2023/07/03 01:45:09;;;;;;;9.98;7.63;;;23.40;99.90;;;;;;5061603;28;20490;-73
2023/07/03 01:47:36;;;;;;;13.80;8.35;;;23.40;99.90;;;;;;5080999;28;20028;-73
2023/07/03 01:50:06;;;;;;;9.57;8.60;;;23.40;99.90;;;;;;5079606;28;20370;-73
2023/07/03 01:52:40;;;;;;;10.48;8.15;;;23.30;99.90;;;;;;5081144;28;20032;-72
2023/07/03 01:55:17;;;;;;;11.48;8.38;;;23.30;99.90;;;;;;5080837;28;20028;-73
2023/07/03 01:58:03;;;;;;;9.88;8.40;;;23.30;99.90;;;;;;5081957;28;20039;-73
2023/07/03 02:00:43;;;;;;;10.57;8.18;;;23.30;99.90;;;;;;5065834;28;20032;-72
2023/07/03 02:03:25;;;;;;;9.85;8.65;;;23.30;99.90;;;;;;5079520;28;20127;-73
2023/07/03 02:05:53;;;;;;;8.35;7.60;;;23.30;99.90;;;;;;5078193;28;20028;-73
2023/07/03 02:08:20;;;;;;;12.63;7.97;;;23.30;99.90;;;;;;5082236;28;20102;-73
2023/07/03 02:10:45;;;;;;;8.82;7.78;;;23.30;99.90;;;;;;5080479;28;20059;-73
2023/07/03 02:13:11;;;;;;;12.30;8.05;;;23.20;99.90;;;;;;5081075;28;20047;-73
2023/07/03 02:15:37;;;;;;;10.30;7.90;;;23.30;99.90;;;;;;5061792;28;20074;-72
2023/07/03 02:18:07;;;;;;;8.82;7.93;;;23.20;99.90;;;;;;5079470;28;20397;-73
2023/07/03 02:20:32;;;;;;;11.40;7.68;;;23.20;99.90;;;;;;5083650;28;20027;-73
2023/07/03 02:22:58;;;;;;;12.68;8.52;;;23.20;99.90;;;;;;5077743;28;20016;-73
2023/07/03 02:25:24;;;;;;;9.40;8.15;;;23.20;99.90;;;;;;5079714;28;20064;-73
2023/07/03 02:27:50;;;;;;;13.23;8.75;;;23.10;99.90;;;;;;5084476;28;20047;-73
2023/07/03 02:30:16;;;;;;;10.20;8.18;;;23.10;99.90;;;;;;5063963;28;20476;-72
2023/07/03 02:32:42;;;;;;;9.52;8.52;;;23.10;99.90;;;;;;5081485;28;20504;-72
2023/07/03 02:35:09;;;;;;;15.27;8.25;;;23.10;99.90;;;;;;5077632;28;20064;-72
2023/07/03 02:37:36;;;;;;;10.20;8.30;;;23.10;99.90;;;;;;5081575;28;20027;-72
2023/07/03 02:40:05;;;;;;;9.27;7.80;;;23.10;99.90;;;;;;5076919;28;20111;-73
2023/07/03 02:42:31;;;;;;;8.55;7.68;;;23.10;99.90;;;;;;5065338;28;20382;-73
2023/07/03 02:44:59;;;;;;;10.00;8.30;;;23.10;99.90;;;;;;5077607;28;20027;-73
2023/07/03 02:47:25;;;;;;;9.57;8.43;;;23.00;99.90;;;;;;5078906;28;20107;-73
2023/07/03 02:49:51;;;;;;;9.15;8.23;;;23.00;99.90;;;;;;5083243;28;20303;-73
2023/07/03 02:52:17;;;;;;;8.85;7.82;;;23.00;99.90;;;;;;5078565;28;20028;-73
2023/07/03 02:54:42;;;;;;;9.25;8.32;;;22.90;99.90;;;;;;5081819;28;20490;-73
2023/07/03 02:57:08;;;;;;;9.70;7.80;;;22.90;99.90;;;;;;5080061;28;20032;-72
2023/07/03 02:59:34;;;;;;;11.20;8.68;;;22.90;99.90;;;;;;5081619;28;20020;-73
2023/07/03 03:02:00;;;;;;;8.63;7.82;;;22.90;99.90;;;;;;5078066;28;20052;-73
2023/07/03 03:04:26;;;;;;;11.20;7.70;;;22.90;99.90;;;;;;5081998;28;20386;-73
2023/07/03 03:06:51;;;;;;;11.32;8.23;;;22.90;99.90;;;;;;5080305;28;20584;-73
2023/07/03 03:09:20;;;;;;;9.93;8.88;;;22.80;99.90;;;;;;5081450;28;20111;-73
2023/07/03 03:11:46;;;;;;;13.93;8.50;;;22.80;99.90;;;;;;5081116;28;20035;-73
2023/07/03 03:14:13;;;;;;;12.48;8.00;;;22.80;99.90;;;;;;5062623;28;20389;-73
2023/07/03 03:16:38;;;;;;;9.48;8.57;;;22.80;99.90;;;;;;5078952;28;20031;-73
2023/07/03 03:19:04;;;;;;;12.98;8.48;;;22.80;99.90;;;;;;5079651;28;20017;-73
2023/07/03 03:21:30;;;;;;;11.88;8.93;;;22.80;99.90;;;;;;5078524;28;20488;-72
2023/07/03 03:23:55;;;;;;;11.70;8.43;;;22.90;99.90;;;;;;5079364;28;20027;-72
2023/07/03 03:26:21;;;;;;;9.68;8.73;;;22.90;99.90;;;;;;5081626;28;20025;-73
2023/07/03 03:28:47;;;;;;;10.00;8.00;;;22.90;99.90;;;;;;5080624;28;20024;-73
2023/07/03 03:31:12;;;;;;;9.38;8.18;;;23.00;99.90;;;;;;5081136;28;20064;-73
2023/07/03 03:33:38;;;;;;;9.68;8.68;;;23.00;99.90;;;;;;5078912;28;20035;-73
2023/07/03 03:36:07;;;;;;;10.80;8.60;;;22.90;99.90;;;;;;5082084;28;20035;-73
2023/07/03 03:38:33;;;;;;;13.65;8.02;;;22.90;99.90;;;;;;5078910;28;20040;-72
2023/07/03 03:41:00;;;;;;;8.73;7.90;;;22.90;99.90;;;;;;5077495;28;20021;-73
2023/07/03 03:43:26;;;;;;;10.55;8.05;;;22.80;99.90;;;;;;5064699;28;20393;-73
2023/07/03 03:45:58;;;;;;;11.43;9.13;;;22.80;99.90;;;;;;5072006;28;20019;-73
2023/07/03 03:48:28;;;;;;;9.75;8.38;;;22.80;99.90;;;;;;5082614;28;20050;-73
2023/07/03 03:50:55;;;;;;;11.73;8.85;;;22.80;99.90;;;;;;5076944;28;20025;-73
2023/07/03 03:53:24;;;;;;;9.93;8.05;;;22.80;99.90;;;;;;5079794;28;20024;-73
2023/07/03 03:55:50;;;;;;;11.38;8.07;;;22.80;99.90;;;;;;5078922;28;20095;-73
2023/07/03 03:58:18;;;;;;;10.45;8.27;;;22.80;99.90;;;;;;5080793;28;20033;-73
2023/07/03 04:00:44;;;;;;;10.98;8.82;;;22.80;99.90;;;;;;5084599;28;20434;-73
2023/07/03 04:03:10;;;;;;;13.93;8.82;;;22.80;99.90;;;;;;5086546;28;20045;-73
2023/07/03 04:05:37;;;;;;;8.50;7.70;;;22.80;99.90;;;;;;5082431;28;20494;-73
2023/07/03 04:08:02;;;;;;;9.35;8.48;;;22.80;99.90;;;;;;5080992;28;20024;-73
2023/07/03 04:10:28;;;;;;;10.65;8.82;;;22.80;99.90;;;;;;5081419;28;20030;-72
2023/07/03 04:12:54;;;;;;;9.55;8.45;;;22.80;99.90;;;;;;5086204;28;20432;-73
2023/07/03 04:15:22;;;;;;;11.32;8.77;;;22.80;99.90;;;;;;5085619;28;20055;-72
2023/07/03 04:17:48;;;;;;;14.45;7.88;;;22.80;99.90;;;;;;5079391;28;20107;-72
2023/07/03 04:20:14;;;;;;;9.80;8.80;;;22.80;99.90;;;;;;5081641;28;20120;-72
2023/07/03 04:22:40;;;;;;;12.20;8.40;;;22.90;99.90;;;;;;5084121;28;20025;-73
2023/07/03 04:25:07;;;;;;;10.40;7.43;;;22.90;99.90;;;;;;5085801;28;20017;-73
2023/07/03 04:27:33;;;;;;;9.20;7.93;;;23.00;99.90;;;;;;5079415;28;20103;-72
2023/07/03 04:29:59;;;;;;;10.05;8.43;;;23.00;99.90;;;;;;5066161;28;20027;-72
2023/07/03 04:32:27;;;;;;;10.35;7.70;;;23.00;99.90;;;;;;5080428;28;20020;-72
2023/07/03 04:34:52;;;;;;;11.73;8.45;;;23.00;99.90;;;;;;5080540;28;20019;-73
2023/07/03 04:37:18;;;;;;;12.65;8.40;;;23.00;99.90;;;;;;5068498;28;20024;-72
2023/07/03 04:39:44;;;;;;;9.80;8.20;;;23.00;99.90;;;;;;5065295;28;20040;-72
2023/07/03 04:42:13;;;;;;;8.40;7.55;;;23.00;99.90;;;;;;5078931;28;20059;-72
2023/07/03 04:44:39;;;;;;;9.75;7.93;;;23.00;99.90;;;;;;5083853;28;20475;-73
2023/07/03 04:47:06;;;;;;;9.75;8.18;;;23.10;99.90;;;;;;5080182;28;20020;-73
2023/07/03 04:49:32;;;;;;;11.35;7.93;;;23.10;99.90;;;;;;5086539;28;20047;-73
2023/07/03 04:51:58;;;;;;;9.63;8.50;;;23.10;99.90;;;;;;5077804;28;20390;-72
2023/07/03 04:54:27;;;;;;;12.23;8.30;;;23.10;99.90;;;;;;5081688;28;20101;-73
2023/07/03 04:56:53;;;;;;;10.00;7.63;;;23.20;99.90;;;;;;5078240;28;20542;-72
2023/07/03 04:59:19;;;;;;;15.00;7.50;;;23.20;99.90;;;;;;5083330;28;20024;-73
2023/07/03 05:01:45;;;;;;;11.70;8.38;;;23.20;99.90;;;;;;5083883;28;20043;-72
2023/07/03 05:04:12;;;;;;;8.13;7.40;;;23.30;99.90;;;;;;5091960;28;20024;-72
2023/07/03 05:06:38;;;;;;;11.95;7.95;;;23.30;99.90;;;;;;5090173;28;20023;-73
2023/07/03 05:09:05;;;;;;;12.05;8.35;;;23.30;99.90;;;;;;5091969;28;20028;-73
2023/07/03 05:11:34;;;;;;;11.10;8.45;;;23.40;99.90;;;;;;5091058;28;20031;-72
2023/07/03 05:14:00;;;;;;;10.38;8.60;;;23.40;99.90;;;;;;5075038;28;20034;-72
2023/07/03 05:16:25;;;;;;;11.05;8.40;;;23.50;99.90;;;;;;5089768;28;20513;-73
2023/07/03 05:18:52;;;;;;;12.25;8.23;;;23.50;99.90;;;;;;5092523;28;20181;-72
2023/07/03 05:21:17;;;;;;;12.93;8.27;;;23.50;99.90;;;;;;5080148;28;20020;-73
2023/07/03 05:23:43;;;;;;;10.07;8.68;;;23.50;99.90;;;;;;5080839;28;20291;-73
2023/07/03 05:26:09;;;;;;;11.57;7.80;;;23.60;99.90;;;;;;5078307;28;20013;-72
2023/07/03 05:28:36;;;;;;;12.50;8.80;;;23.60;99.90;;;;;;5080812;28;20508;-72
2023/07/03 05:31:02;;;;;;;15.63;9.07;;;23.70;99.90;;;;;;5078452;28;20444;-73
2023/07/03 05:33:31;;;;;;;12.98;9.13;;;23.70;99.90;;;;;;5083271;28;20028;-72
2023/07/03 05:36:01;;;;;;;12.95;8.55;;;23.80;99.90;;;;;;5060893;28;20032;-72
2023/07/03 05:38:27;;;;;;;11.02;9.25;;;23.80;99.90;;;;;;5081355;28;20032;-73
2023/07/03 05:40:54;;;;;;;11.73;10.35;;;23.80;99.90;;;;;;5078781;28;20390;-72
2023/07/03 05:43:21;;;;;;;12.73;10.45;;;23.80;99.90;;;;;;5076702;28;20086;-72
2023/07/03 05:45:47;;;;;;;11.38;10.20;;;23.80;99.90;;;;;;5087238;28;20020;-73
2023/07/03 05:48:13;;;;;;;15.25;9.48;;;23.90;99.90;;;;;;5089343;28;20054;-72
2023/07/03 05:50:38;;;;;;;13.25;11.82;;;23.90;99.90;;;;;;5089926;28;20024;-73
2023/07/03 05:53:04;;;;;;;14.98;12.20;;;23.90;99.90;;;;;;5084198;28;20394;-73
2023/07/03 05:55:30;;;;;;;14.88;12.70;;;23.90;99.90;;;;;;5084669;28;20043;-73
2023/07/03 05:57:56;;;;;;;13.10;11.13;;;23.80;99.90;;;;;;5080429;28;20363;-73
2023/07/03 06:00:23;;;;;;;16.95;12.38;;;23.90;99.90;;;;;;5079111;28;20028;-72
2023/07/03 06:02:54;;;;;;;16.48;12.60;;;23.90;99.90;;;;;;5083993;28;20044;-72
2023/07/03 06:05:21;;;;;;;14.40;11.38;;;23.90;99.90;;;;;;5080913;28;20027;-72
2023/07/03 06:07:50;;;;;;;15.13;11.98;;;23.90;99.90;;;;;;5083093;28;20024;-73
2023/07/03 06:10:16;;;;;;;17.25;12.75;;;24.00;99.90;;;;;;5079915;28;20110;-73
2023/07/03 06:12:42;;;;;;;12.88;11.55;;;23.90;99.90;;;;;;5080161;28;20024;-73
2023/07/03 06:15:09;;;;;;;14.88;11.35;;;24.00;99.90;;;;;;5079701;28;20025;-72
2023/07/03 06:17:36;;;;;;;21.40;13.35;;;24.00;99.90;;;;;;5080132;28;20024;-73
2023/07/03 06:20:04;;;;;;;15.65;12.85;;;24.00;99.90;;;;;;5081457;28;20020;-72
2023/07/03 06:22:30;;;;;;;16.90;12.80;;;24.00;99.90;;;;;;5077986;28;20023;-72
2023/07/03 06:24:55;;;;;;;19.80;13.88;;;24.10;99.90;;;;;;5083172;28;20021;-73
2023/07/03 06:27:21;;;;;;;16.60;14.10;;;24.10;99.90;;;;;;5080793;28;20390;-72
2023/07/03 06:29:47;;;;;;;17.35;13.50;;;24.10;99.90;;;;;;5082584;28;20112;-72
2023/07/03 06:32:13;;;;;;;18.67;13.75;;;24.10;99.90;;;;;;5080300;28;20535;-72
2023/07/03 06:34:39;;;;;;;15.85;12.88;;;24.10;99.90;;;;;;5080725;28;20059;-72
2023/07/03 06:37:05;;;;;;;14.13;12.73;;;24.20;99.90;;;;;;5078830;28;20064;-73
2023/07/03 06:39:37;;;;;;;17.27;13.23;;;24.20;99.90;;;;;;5081567;28;20028;-72
2023/07/03 06:42:03;;;;;;;17.45;13.82;;;24.20;99.90;;;;;;5077170;28;20035;-72
2023/07/03 06:44:29;;;;;;;20.17;13.35;;;24.30;99.90;;;;;;5082442;28;20634;-73
2023/07/03 06:46:55;;;;;;;13.50;12.07;;;24.30;99.90;;;;;;5080061;28;20063;-73
2023/07/03 06:49:22;;;;;;;16.00;12.95;;;24.30;99.90;;;;;;5080937;28;20470;-73
2023/07/03 06:51:48;;;;;;;14.48;12.95;;;24.40;99.90;;;;;;5083190;28;20446;-73
2023/07/03 06:54:14;;;;;;;13.48;12.18;;;24.50;99.90;;;;;;5084622;28;20020;-73
2023/07/03 06:56:40;;;;;;;17.88;13.82;;;24.50;99.90;;;;;;5076714;28;20110;-73
2023/07/03 06:59:06;;;;;;;15.05;13.35;;;24.60;99.90;;;;;;5080412;28;20032;-73
2023/07/03 07:01:31;;;;;;;19.90;14.63;;;24.70;99.90;;;;;;5076402;28;20020;-73
2023/07/03 07:03:57;;;;;;;18.13;14.15;;;24.70;99.90;;;;;;5080992;28;20049;-73
2023/07/03 07:06:28;;;;;;;16.60;13.75;;;24.80;99.90;;;;;;5076482;28;20069;-73
2023/07/03 07:08:54;;;;;;;21.23;14.02;;;24.80;99.90;;;;;;5078844;28;20509;-73
2023/07/03 07:11:24;;;;;;;14.38;12.68;;;24.90;99.90;;;;;;5076230;28;20160;-73
2023/07/03 07:13:51;;;;;;;15.70;12.10;;;24.90;99.90;;;;;;5076973;28;20371;-73
2023/07/03 07:16:26;;;;;;;16.13;12.32;;;24.90;99.90;;;;;;5074071;28;20178;-73
2023/07/03 07:18:56;;;;;;;22.00;15.05;;;25.00;99.90;;;;;;5080746;28;20043;-73
2023/07/03 07:21:23;;;;;;;19.00;13.98;;;24.90;99.90;;;;;;5075672;28;20020;-73
2023/07/03 07:23:51;;;;;;;17.98;12.95;;;25.00;99.90;;;;;;5081873;28;20065;-73
2023/07/03 07:26:18;;;;;;;19.30;14.63;;;25.00;99.90;;;;;;5075187;28;20201;-73
2023/07/03 07:28:44;;;;;;;21.77;14.43;;;25.00;99.90;;;;;;5082653;28;20020;-73
2023/07/03 07:31:09;;;;;;;19.15;16.25;;;25.00;99.90;;;;;;5075422;28;20051;-73
2023/07/03 07:33:35;;;;;;;20.02;15.30;;;25.00;99.90;;;;;;5082314;28;20016;-73
2023/07/03 07:36:01;;;;;;;18.40;15.70;;;25.00;99.90;;;;;;5079008;28;20497;-73
2023/07/03 07:38:27;;;;;;;21.80;17.10;;;25.00;99.90;;;;;;5081482;28;20077;-73
2023/07/03 07:41:02;;;;;;;23.02;17.83;;;25.00;99.90;;;;;;5076021;28;20028;-73
2023/07/03 07:43:28;;;;;;;23.85;17.35;;;25.00;99.90;;;;;;5080811;28;20103;-73
2023/07/03 07:45:54;;;;;;;22.25;16.70;;;25.00;99.90;;;;;;5078926;28;20021;-73
2023/07/03 07:48:20;;;;;;;21.08;17.00;;;25.00;99.90;;;;;;5081325;28;20025;-73
2023/07/03 07:50:46;;;;;;;21.30;17.98;;;25.00;99.90;;;;;;5057881;28;20094;-73
2023/07/03 07:53:12;;;;;;;23.13;18.63;;;25.00;99.90;;;;;;5080885;28;20020;-74
2023/07/03 07:55:38;;;;;;;22.05;17.02;;;24.90;99.90;;;;;;5078550;28;20025;-73
2023/07/03 07:58:04;;;;;;;24.17;17.75;;;24.90;99.90;;;;;;5078769;28;20024;-73
2023/07/03 08:00:29;;;;;;;25.48;17.13;;;24.90;99.90;;;;;;5077705;28;20112;-73
2023/07/03 08:02:55;;;;;;;26.80;18.38;;;24.90;99.90;;;;;;5080905;28;20119;-73
2023/07/03 08:05:21;;;;;;;21.20;17.55;;;24.90;99.90;;;;;;5076187;28;20425;-73
2023/07/03 08:07:47;;;;;;;20.35;17.75;;;25.00;99.90;;;;;;5080517;28;20082;-73
2023/07/03 08:10:14;;;;;;;23.73;17.77;;;24.90;99.90;;;;;;5077218;28;20028;-73
2023/07/03 08:12:40;;;;;;;24.15;17.67;;;24.90;99.90;;;;;;5082435;28;20060;-73
2023/07/03 08:15:07;;;;;;;24.38;17.90;;;24.90;99.90;;;;;;5078325;28;20275;-73
2023/07/03 08:17:34;;;;;;;21.10;17.35;;;24.90;99.90;;;;;;5078316;28;20470;-73
2023/07/03 08:19:59;;;;;;;18.77;16.77;;;24.90;99.90;;;;;;5077415;28;20051;-73
2023/07/03 08:22:25;;;;;;;22.08;17.10;;;24.80;99.90;;;;;;5079278;28;20079;-73
2023/07/03 08:24:51;;;;;;;19.90;16.85;;;24.80;99.90;;;;;;5075843;28;20025;-73
2023/07/03 08:27:17;;;;;;;20.33;15.93;;;24.80;99.90;;;;;;5079580;28;20025;-73
2023/07/03 08:29:45;;;;;;;18.52;15.32;;;24.80;99.90;;;;;;5078538;28;20020;-73
2023/07/03 08:32:11;;;;;;;19.83;16.95;;;24.80;99.90;;;;;;5076878;28;20028;-73
2023/07/03 08:34:37;;;;;;;21.20;16.67;;;24.80;99.90;;;;;;5081562;28;20024;-73
2023/07/03 08:37:03;;;;;;;24.83;17.95;;;24.80;99.90;;;;;;5078791;28;20039;-73
2023/07/03 08:39:29;;;;;;;23.10;15.23;;;24.80;99.90;;;;;;5079145;28;20024;-73
2023/07/03 08:42:20;;;;;;;23.17;17.40;;;24.90;99.90;;;;;;5076777;28;20020;-73
2023/07/03 08:44:49;;;;;;;18.80;15.38;;;24.90;99.90;;;;;;5078860;28;20021;-73
2023/07/03 08:47:22;;;;;;;20.90;16.65;;;24.90;99.90;;;;;;5080617;28;20547;-73
2023/07/03 08:49:51;;;;;;;22.50;15.85;;;24.90;99.90;;;;;;5082627;28;20032;-73
2023/07/03 08:52:55;;;;;;;21.15;16.88;;;24.90;99.90;;;;;;5080724;28;20025;-73
2023/07/03 08:55:30;;;;;;;20.48;16.75;;;25.00;99.90;;;;;;5047257;28;20139;-73
2023/07/03 08:57:56;;;;;;;19.95;17.10;;;25.00;99.90;;;;;;5087695;28;20038;-73
2023/07/03 09:00:22;;;;;;;20.70;17.38;;;25.00;99.90;;;;;;5085387;28;20390;-73
2023/07/03 09:03:05;;;;;;;20.90;18.00;;;25.00;99.90;;;;;;5079141;28;20056;-74
2023/07/03 09:05:53;;;;;;;25.90;16.83;;;25.00;99.90;;;;;;5084872;28;20410;-73
2023/07/03 09:08:28;;;;;;;23.48;18.05;;;25.10;99.90;;;;;;5084157;28;20028;-74
2023/07/03 09:10:56;;;;;;;20.65;18.38;;;25.20;99.90;;;;;;5083405;28;20027;-73
2023/07/03 09:13:27;;;;;;;22.42;18.30;;;25.20;99.90;;;;;;5082642;28;20298;-73
2023/07/03 09:15:59;;;;;;;23.55;18.48;;;25.20;99.90;;;;;;5080220;28;20028;-73
2023/07/03 09:18:30;;;;;;;22.35;19.00;;;25.20;99.90;;;;;;5085152;28;20396;-73
2023/07/03 09:20:59;;;;;;;23.00;20.00;;;25.20;99.90;;;;;;5085048;28;20039;-73
2023/07/03 09:23:38;;;;;;;24.48;20.50;;;25.20;99.90;;;;;;5074994;28;20028;-73
2023/07/03 09:26:16;;;;;;;19.00;16.65;;;25.20;99.90;;;;;;5082007;28;20028;-73
2023/07/03 09:28:42;;;;;;;21.98;18.80;;;25.30;99.90;;;;;;5083693;28;20028;-73
2023/07/03 09:31:08;;;;;;;22.67;18.65;;;25.30;99.90;;;;;;5082152;28;20102;-73
2023/07/03 09:33:34;;;;;;;21.75;19.00;;;25.30;99.90;;;;;;5085015;28;20128;-73
2023/07/03 09:36:20;;;;;;;21.48;18.67;;;25.30;99.90;;;;;;5081052;28;20032;-73
2023/07/03 09:38:45;;;;;;;21.70;18.42;;;25.30;99.90;;;;;;5083896;28;20103;-73
2023/07/03 09:41:11;;;;;;;22.00;18.02;;;25.40;99.90;;;;;;5084067;28;20550;-73
2023/07/03 09:43:44;;;;;;;23.77;18.73;;;25.60;99.90;;;;;;5080985;28;20064;-73
2023/07/03 09:46:14;;;;;;;26.23;20.70;;;25.70;99.90;;;;;;5081789;28;20796;-73
2023/07/03 09:48:40;;;;;;;18.25;16.20;;;25.70;99.90;;;;;;5080528;28;20031;-73
2023/07/03 09:51:20;;;;;;;24.10;19.35;;;25.80;99.90;;;;;;5080991;28;20386;-73
2023/07/03 09:53:46;;;;;;;24.08;18.08;;;25.90;99.90;;;;;;5083982;28;20035;-74
2023/07/03 09:56:20;;;;;;;23.40;18.58;;;26.00;99.90;;;;;;5082336;28;20115;-73
2023/07/03 09:58:48;;;;;;;25.98;18.52;;;26.00;99.90;;;;;;5083251;28;20043;-73
2023/07/03 10:01:24;;;;;;;21.90;17.83;;;26.10;99.90;;;;;;5081983;28;20027;-73
2023/07/03 10:04:08;;;;;;;20.08;17.17;;;26.10;99.90;;;;;;5081668;28;20123;-73
2023/07/03 10:06:35;;;;;;;20.05;16.63;;;26.10;99.90;;;;;;5064526;28;20056;-73
2023/07/03 10:09:04;;;;;;;20.88;17.23;;;26.10;99.90;;;;;;5080650;28;20021;-73
2023/07/03 10:11:58;;;;;;;18.30;14.35;;;26.10;99.90;;;;;;5079773;28;20021;-73
2023/07/03 10:14:55;;;;;;;17.55;15.45;;;26.10;99.90;;;;;;5122694;27;20112;-72
2023/07/03 10:17:29;;;;;;;17.08;15.13;;;26.10;99.90;;;;;;5101657;28;20553;-72
2023/07/03 10:20:01;;;;;;;18.35;16.15;;;26.30;99.90;;;;;;5108278;28;20020;-73
2023/07/03 10:22:27;;;;;;;17.48;15.52;;;26.50;99.90;;;;;;5104511;28;20567;-73
2023/07/03 10:25:00;;;;;;;17.55;15.75;;;26.50;99.90;;;;;;5106349;28;20019;-72
2023/07/03 10:27:28;;;;;;;20.10;15.13;;;26.50;99.90;;;;;;5080354;28;20427;-72
2023/07/03 10:29:55;;;;;;;17.42;15.57;;;26.50;99.90;;;;;;5106185;28;20026;-73
2023/07/03 10:32:25;;;;;;;18.33;15.00;;;26.60;99.90;;;;;;5104784;28;20440;-72
2023/07/03 10:34:57;;;;;;;17.25;14.50;;;26.50;99.90;;;;;;5105584;28;20020;-72
2023/07/03 10:37:25;;;;;;;15.52;13.93;;;26.60;99.90;;;;;;5101361;28;20489;-72
2023/07/03 10:39:59;;;;;;;15.75;14.07;;;26.60;99.90;;;;;;5097121;28;20082;-73
2023/07/03 10:42:42;;;;;;;15.85;12.88;;;26.70;99.90;;;;;;5101375;28;20030;-72
2023/07/03 10:45:12;;;;;;;18.35;14.77;;;26.70;99.90;;;;;;5109787;28;20553;-73
2023/07/03 10:47:54;;;;;;;15.67;12.77;;;26.70;99.90;;;;;;5098271;28;20453;-73
2023/07/03 10:50:30;;;;;;;14.45;12.93;;;26.70;99.90;;;;;;5097754;28;20020;-73
2023/07/03 10:53:13;;;;;;;14.80;13.27;;;26.80;99.90;;;;;;5099571;28;20032;-73
2023/07/03 10:55:51;;;;;;;13.43;12.00;;;26.80;99.90;;;;;;5089094;28;20039;-73
2023/07/03 10:58:36;;;;;;;11.43;10.40;;;26.90;99.90;;;;;;5100790;28;20020;-73
2023/07/03 11:01:20;;;;;;;12.05;10.80;;;27.00;99.90;;;;;;5091665;28;20042;-73
2023/07/03 11:03:45;;;;;;;11.90;10.70;;;27.10;99.90;;;;;;5099765;28;20038;-72
2023/07/03 11:06:36;;;;;;;10.70;9.70;;;27.10;99.90;;;;;;5110745;28;20529;-73
2023/07/03 11:09:22;;;;;;;11.70;10.57;;;27.20;99.90;;;;;;5098601;28;20039;-73
2023/07/03 11:12:30;;;;;;;12.63;10.02;;;27.30;99.90;;;;;;5101440;28;20746;-72
2023/07/03 11:15:15;;;;;;;11.68;10.38;;;27.40;99.90;;;;;;5106918;28;20031;-72
2023/07/03 11:18:39;;;;;;;9.55;8.60;;;27.30;99.90;;;;;;5099506;28;20028;-73
2023/07/03 11:21:09;;;;;;;9.82;8.93;;;27.30;99.90;;;;;;5033812;28;20048;-73
2023/07/03 11:23:48;;;;;;;9.15;8.23;;;27.40;99.90;;;;;;5035146;28;20092;-72
2023/07/03 11:26:32;;;;;;;10.65;9.25;;;27.40;99.90;;;;;;5062198;28;20635;-73
2023/07/03 11:28:59;;;;;;;11.18;8.40;;;27.40;99.90;;;;;;5087724;28;20030;-73
2023/07/03 11:31:25;;;;;;;6.95;6.35;;;27.40;99.90;;;;;;5093608;28;20032;-73
2023/07/03 11:33:52;;;;;;;7.30;6.60;;;27.40;99.90;;;;;;5070246;28;20490;-72
2023/07/03 11:36:44;;;;;;;7.18;6.55;;;27.40;99.90;;;;;;5061616;28;20545;-73
2023/07/03 11:39:19;;;;;;;6.53;5.93;;;27.30;99.90;;;;;;5087473;28;20020;-73
2023/07/03 11:41:50;;;;;;;5.15;4.65;;;27.40;99.90;;;;;;5074780;28;20038;-73
2023/07/03 11:44:29;;;;;;;5.57;5.03;;;27.40;99.90;;;;;;5086445;28;20016;-72
2023/07/03 11:47:04;;;;;;;5.47;4.97;;;27.40;99.90;;;;;;5068812;28;20262;-73
2023/07/03 11:49:36;;;;;;;7.03;4.38;;;27.50;99.90;;;;;;5088453;28;20055;-73
2023/07/03 11:52:06;;;;;;;5.13;4.72;;;27.60;99.90;;;;;;5073586;28;20035;-73
2023/07/03 11:54:35;;;;;;;5.47;5.00;;;27.60;99.90;;;;;;5086408;28;20562;-72
2023/07/03 11:57:10;;;;;;;4.38;4.00;;;27.70;99.90;;;;;;5091405;28;20028;-72
2023/07/03 11:59:42;;;;;;;4.70;4.40;;;27.80;99.90;;;;;;5088681;28;20081;-73
2023/07/03 12:02:11;;;;;;;5.85;5.45;;;27.90;99.90;;;;;;5091291;28;20022;-72
2023/07/03 12:04:43;;;;;;;6.93;5.60;;;28.10;99.90;;;;;;5086393;28;20039;-73
2023/07/03 12:07:21;;;;;;;5.57;5.10;;;28.30;99.90;;;;;;5085884;28;20028;-73
2023/07/03 12:09:51;;;;;;;7.15;6.45;;;28.30;99.90;;;;;;5088639;28;20118;-72
2023/07/03 12:12:18;;;;;;;9.98;7.45;;;28.30;99.90;;;;;;5090631;28;20070;-73
2023/07/03 12:17:20;;;;;;;6.30;5.75;;;28.70;99.90;;;;;;5089567;28;20029;-73
2023/07/03 12:19:48;;;;;;;6.50;5.88;;;28.80;99.90;;;;;;5085383;28;20035;-72
2023/07/03 12:22:17;;;;;;;7.10;6.40;;;28.90;99.90;;;;;;5089834;28;20417;-73
2023/07/03 12:24:43;;;;;;;7.47;6.68;;;29.10;99.90;;;;;;5087883;28;20500;-73
2023/07/03 12:27:09;;;;;;;6.50;5.93;;;29.00;99.90;;;;;;5089869;28;20032;-73
2023/07/03 12:29:46;;;;;;;6.95;6.30;;;28.80;99.90;;;;;;5088805;28;20528;-73
2023/07/03 12:32:15;;;;;;;5.78;5.38;;;28.60;99.90;;;;;;5090682;28;21006;-73
2023/07/03 12:34:42;;;;;;;7.00;6.40;;;28.50;99.90;;;;;;5089575;28;20035;-72
2023/07/03 12:37:16;;;;;;;6.45;5.85;;;28.30;99.90;;;;;;5089714;28;20099;-72
2023/07/03 12:39:46;;;;;;;6.90;6.32;;;28.40;99.90;;;;;;5087711;28;20072;-73
2023/07/03 12:42:23;;;;;;;8.75;6.35;;;28.40;99.90;;;;;;5087158;28;20108;-73
2023/07/03 12:44:49;;;;;;;6.95;6.30;;;28.20;99.90;;;;;;5089093;28;20037;-73
2023/07/03 12:47:17;;;;;;;9.30;6.38;;;28.10;99.90;;;;;;5089340;28;20493;-73
2023/07/03 12:49:58;;;;;;;6.90;6.30;;;28.00;99.90;;;;;;5087344;28;20019;-72